sensor_id;sensor_type;location;lat;lon;timestamp;P1;durP1;ratioP1;P2;durP2;ratioP2
62362;SDS011;48396;48.426;1.500;2023-06-14T00:00:13;9.00;;;5.57;;
62362;SDS011;48396;48.426;1.500;2023-06-14T00:02:39;12.40;;;6.15;;
62362;SDS011;48396;48.426;1.500;2023-06-14T00:05:06;9.40;;;5.40;;
62362;SDS011;48396;48.426;1.500;2023-06-14T00:07:36;10.50;;;5.60;;
62362;SDS011;48396;48.426;1.500;2023-06-14T00:10:09;13.10;;;5.50;;
62362;SDS011;48396;48.426;1.500;2023-06-14T00:12:35;11.77;;;5.70;;
62362;SDS011;48396;48.426;1.500;2023-06-14T00:15:01;10.05;;;5.65;;
62362;SDS011;48396;48.426;1.500;2023-06-14T00:17:28;8.38;;;5.28;;
62362;SDS011;48396;48.426;1.500;2023-06-14T00:19:55;9.85;;;5.53;;
62362;SDS011;48396;48.426;1.500;2023-06-14T00:22:22;10.02;;;5.63;;
62362;SDS011;48396;48.426;1.500;2023-06-14T00:24:49;11.55;;;6.20;;
62362;SDS011;48396;48.426;1.500;2023-06-14T00:27:16;9.02;;;5.28;;
62362;SDS011;48396;48.426;1.500;2023-06-14T00:29:41;10.25;;;5.78;;
62362;SDS011;48396;48.426;1.500;2023-06-14T00:32:07;9.15;;;5.40;;
62362;SDS011;48396;48.426;1.500;2023-06-14T00:34:33;9.38;;;5.40;;
62362;SDS011;48396;48.426;1.500;2023-06-14T00:36:59;12.75;;;5.70;;
62362;SDS011;48396;48.426;1.500;2023-06-14T00:39:24;12.05;;;6.03;;
62362;SDS011;48396;48.426;1.500;2023-06-14T00:41:50;12.00;;;5.82;;
62362;SDS011;48396;48.426;1.500;2023-06-14T00:44:16;10.75;;;6.07;;
62362;SDS011;48396;48.426;1.500;2023-06-14T00:46:42;11.35;;;5.88;;
62362;SDS011;48396;48.426;1.500;2023-06-14T00:49:08;11.73;;;5.55;;
62362;SDS011;48396;48.426;1.500;2023-06-14T00:51:35;9.15;;;5.47;;
62362;SDS011;48396;48.426;1.500;2023-06-14T00:54:02;9.60;;;5.70;;
62362;SDS011;48396;48.426;1.500;2023-06-14T00:56:28;10.85;;;5.95;;
62362;SDS011;48396;48.426;1.500;2023-06-14T00:58:54;12.32;;;5.68;;
62362;SDS011;48396;48.426;1.500;2023-06-14T01:01:21;14.07;;;6.38;;
62362;SDS011;48396;48.426;1.500;2023-06-14T01:03:47;11.57;;;5.80;;
62362;SDS011;48396;48.426;1.500;2023-06-14T01:09:12;9.68;;;5.75;;
62362;SDS011;48396;48.426;1.500;2023-06-14T01:11:55;9.52;;;5.63;;
62362;SDS011;48396;48.426;1.500;2023-06-14T01:14:34;12.27;;;6.10;;
62362;SDS011;48396;48.426;1.500;2023-06-14T01:17:00;11.35;;;5.93;;
62362;SDS011;48396;48.426;1.500;2023-06-14T01:19:27;9.60;;;5.93;;
62362;SDS011;48396;48.426;1.500;2023-06-14T01:21:53;11.45;;;6.28;;
62362;SDS011;48396;48.426;1.500;2023-06-14T01:24:20;9.93;;;5.75;;
62362;SDS011;48396;48.426;1.500;2023-06-14T01:26:51;12.02;;;6.00;;
62362;SDS011;48396;48.426;1.500;2023-06-14T01:29:21;11.40;;;5.95;;
62362;SDS011;48396;48.426;1.500;2023-06-14T01:31:49;9.68;;;5.45;;
62362;SDS011;48396;48.426;1.500;2023-06-14T01:34:15;8.63;;;5.30;;
62362;SDS011;48396;48.426;1.500;2023-06-14T01:36:41;12.23;;;6.50;;
62362;SDS011;48396;48.426;1.500;2023-06-14T01:39:10;10.77;;;6.35;;
62362;SDS011;48396;48.426;1.500;2023-06-14T01:41:38;10.95;;;6.22;;
62362;SDS011;48396;48.426;1.500;2023-06-14T01:44:06;10.98;;;6.07;;
62362;SDS011;48396;48.426;1.500;2023-06-14T01:46:32;9.77;;;5.63;;
62362;SDS011;48396;48.426;1.500;2023-06-14T01:48:58;9.88;;;6.03;;
62362;SDS011;48396;48.426;1.500;2023-06-14T01:51:24;10.52;;;6.00;;
62362;SDS011;48396;48.426;1.500;2023-06-14T01:53:50;12.13;;;6.10;;
62362;SDS011;48396;48.426;1.500;2023-06-14T01:56:15;11.90;;;5.97;;
62362;SDS011;48396;48.426;1.500;2023-06-14T01:58:41;10.38;;;6.25;;
62362;SDS011;48396;48.426;1.500;2023-06-14T02:01:07;12.55;;;6.68;;
62362;SDS011;48396;48.426;1.500;2023-06-14T02:03:33;11.10;;;6.07;;
62362;SDS011;48396;48.426;1.500;2023-06-14T02:05:59;11.63;;;5.82;;
62362;SDS011;48396;48.426;1.500;2023-06-14T02:08:25;14.10;;;6.38;;
62362;SDS011;48396;48.426;1.500;2023-06-14T02:10:51;11.60;;;6.00;;
62362;SDS011;48396;48.426;1.500;2023-06-14T02:13:16;10.60;;;5.90;;
62362;SDS011;48396;48.426;1.500;2023-06-14T02:15:42;10.77;;;5.80;;
62362;SDS011;48396;48.426;1.500;2023-06-14T02:18:09;12.15;;;6.50;;
62362;SDS011;48396;48.426;1.500;2023-06-14T02:20:35;13.20;;;6.53;;
62362;SDS011;48396;48.426;1.500;2023-06-14T02:23:00;11.70;;;6.40;;
62362;SDS011;48396;48.426;1.500;2023-06-14T02:25:26;11.32;;;6.38;;
62362;SDS011;48396;48.426;1.500;2023-06-14T02:27:53;10.32;;;6.05;;
62362;SDS011;48396;48.426;1.500;2023-06-14T02:30:20;12.88;;;6.25;;
62362;SDS011;48396;48.426;1.500;2023-06-14T02:32:46;12.43;;;6.55;;
62362;SDS011;48396;48.426;1.500;2023-06-14T02:35:13;10.70;;;6.10;;
62362;SDS011;48396;48.426;1.500;2023-06-14T02:37:39;13.57;;;6.95;;
62362;SDS011;48396;48.426;1.500;2023-06-14T02:40:05;9.65;;;5.90;;
62362;SDS011;48396;48.426;1.500;2023-06-14T02:42:31;11.52;;;5.78;;
62362;SDS011;48396;48.426;1.500;2023-06-14T02:44:57;11.63;;;6.22;;
62362;SDS011;48396;48.426;1.500;2023-06-14T02:47:22;9.45;;;6.05;;
62362;SDS011;48396;48.426;1.500;2023-06-14T02:49:48;14.30;;;7.13;;
62362;SDS011;48396;48.426;1.500;2023-06-14T02:52:14;12.55;;;6.72;;
62362;SDS011;48396;48.426;1.500;2023-06-14T02:54:39;11.95;;;6.40;;
62362;SDS011;48396;48.426;1.500;2023-06-14T02:57:06;10.00;;;6.20;;
62362;SDS011;48396;48.426;1.500;2023-06-14T02:59:32;11.40;;;6.05;;
62362;SDS011;48396;48.426;1.500;2023-06-14T03:01:58;12.65;;;6.70;;
62362;SDS011;48396;48.426;1.500;2023-06-14T03:04:24;11.80;;;6.65;;
62362;SDS011;48396;48.426;1.500;2023-06-14T03:06:51;12.40;;;7.03;;
62362;SDS011;48396;48.426;1.500;2023-06-14T03:09:18;12.25;;;6.20;;
62362;SDS011;48396;48.426;1.500;2023-06-14T03:11:44;11.45;;;6.40;;
62362;SDS011;48396;48.426;1.500;2023-06-14T03:14:10;9.68;;;5.80;;
62362;SDS011;48396;48.426;1.500;2023-06-14T03:16:36;12.57;;;6.22;;
62362;SDS011;48396;48.426;1.500;2023-06-14T03:19:02;13.50;;;6.78;;
62362;SDS011;48396;48.426;1.500;2023-06-14T03:21:28;11.90;;;6.70;;
62362;SDS011;48396;48.426;1.500;2023-06-14T03:23:53;12.85;;;6.65;;
62362;SDS011;48396;48.426;1.500;2023-06-14T03:26:19;14.45;;;7.20;;
62362;SDS011;48396;48.426;1.500;2023-06-14T03:28:45;13.48;;;6.80;;
62362;SDS011;48396;48.426;1.500;2023-06-14T03:31:11;15.57;;;7.00;;
62362;SDS011;48396;48.426;1.500;2023-06-14T03:33:37;12.65;;;6.82;;
62362;SDS011;48396;48.426;1.500;2023-06-14T03:36:03;11.93;;;6.88;;
62362;SDS011;48396;48.426;1.500;2023-06-14T03:38:30;12.80;;;6.90;;
62362;SDS011;48396;48.426;1.500;2023-06-14T03:40:56;12.80;;;7.07;;
62362;SDS011;48396;48.426;1.500;2023-06-14T03:43:21;10.63;;;6.40;;
62362;SDS011;48396;48.426;1.500;2023-06-14T03:45:47;12.93;;;6.88;;
62362;SDS011;48396;48.426;1.500;2023-06-14T03:48:12;11.90;;;6.35;;
62362;SDS011;48396;48.426;1.500;2023-06-14T03:50:38;11.95;;;6.65;;
62362;SDS011;48396;48.426;1.500;2023-06-14T03:53:04;15.18;;;7.32;;
62362;SDS011;48396;48.426;1.500;2023-06-14T03:55:30;14.25;;;6.93;;
62362;SDS011;48396;48.426;1.500;2023-06-14T03:57:56;13.43;;;6.75;;
62362;SDS011;48396;48.426;1.500;2023-06-14T04:00:22;11.88;;;6.82;;
62362;SDS011;48396;48.426;1.500;2023-06-14T04:02:48;12.27;;;6.82;;
62362;SDS011;48396;48.426;1.500;2023-06-14T04:05:14;13.57;;;6.65;;
62362;SDS011;48396;48.426;1.500;2023-06-14T04:07:41;13.30;;;7.00;;
62362;SDS011;48396;48.426;1.500;2023-06-14T04:10:10;14.43;;;6.93;;
62362;SDS011;48396;48.426;1.500;2023-06-14T04:12:36;13.25;;;6.57;;
62362;SDS011;48396;48.426;1.500;2023-06-14T04:15:02;11.90;;;6.82;;
62362;SDS011;48396;48.426;1.500;2023-06-14T04:17:28;12.57;;;6.47;;
62362;SDS011;48396;48.426;1.500;2023-06-14T04:19:54;13.77;;;7.03;;
62362;SDS011;48396;48.426;1.500;2023-06-14T04:22:20;13.05;;;7.00;;
62362;SDS011;48396;48.426;1.500;2023-06-14T04:24:45;14.40;;;6.78;;
62362;SDS011;48396;48.426;1.500;2023-06-14T04:27:11;15.70;;;7.40;;
62362;SDS011;48396;48.426;1.500;2023-06-14T04:29:36;12.55;;;7.30;;
62362;SDS011;48396;48.426;1.500;2023-06-14T04:32:04;13.32;;;7.22;;
62362;SDS011;48396;48.426;1.500;2023-06-14T04:34:30;14.90;;;7.05;;
62362;SDS011;48396;48.426;1.500;2023-06-14T04:36:59;14.27;;;6.82;;
62362;SDS011;48396;48.426;1.500;2023-06-14T04:39:26;12.40;;;6.63;;
62362;SDS011;48396;48.426;1.500;2023-06-14T04:41:52;13.38;;;6.70;;
62362;SDS011;48396;48.426;1.500;2023-06-14T04:44:22;12.98;;;6.80;;
62362;SDS011;48396;48.426;1.500;2023-06-14T04:46:49;13.32;;;6.72;;
62362;SDS011;48396;48.426;1.500;2023-06-14T04:49:15;14.75;;;7.38;;
62362;SDS011;48396;48.426;1.500;2023-06-14T04:51:42;13.88;;;7.50;;
62362;SDS011;48396;48.426;1.500;2023-06-14T04:54:11;13.25;;;7.28;;
62362;SDS011;48396;48.426;1.500;2023-06-14T04:56:40;13.02;;;7.25;;
62362;SDS011;48396;48.426;1.500;2023-06-14T04:59:07;13.07;;;6.53;;
62362;SDS011;48396;48.426;1.500;2023-06-14T05:01:33;13.50;;;7.07;;
62362;SDS011;48396;48.426;1.500;2023-06-14T05:04:00;12.32;;;7.30;;
62362;SDS011;48396;48.426;1.500;2023-06-14T05:06:26;14.90;;;7.30;;
62362;SDS011;48396;48.426;1.500;2023-06-14T05:08:52;13.57;;;6.88;;
62362;SDS011;48396;48.426;1.500;2023-06-14T05:11:37;12.57;;;6.93;;
62362;SDS011;48396;48.426;1.500;2023-06-14T05:14:02;13.48;;;7.68;;
62362;SDS011;48396;48.426;1.500;2023-06-14T05:16:28;11.43;;;6.88;;
62362;SDS011;48396;48.426;1.500;2023-06-14T05:18:54;12.30;;;7.13;;
62362;SDS011;48396;48.426;1.500;2023-06-14T05:21:20;13.70;;;7.05;;
62362;SDS011;48396;48.426;1.500;2023-06-14T05:23:45;13.40;;;6.93;;
62362;SDS011;48396;48.426;1.500;2023-06-14T05:26:11;13.27;;;6.95;;
62362;SDS011;48396;48.426;1.500;2023-06-14T05:28:37;13.77;;;6.90;;
62362;SDS011;48396;48.426;1.500;2023-06-14T05:31:02;12.93;;;6.75;;
62362;SDS011;48396;48.426;1.500;2023-06-14T05:33:28;12.18;;;6.80;;
62362;SDS011;48396;48.426;1.500;2023-06-14T05:35:53;13.35;;;6.97;;
62362;SDS011;48396;48.426;1.500;2023-06-14T05:38:20;14.05;;;7.22;;
62362;SDS011;48396;48.426;1.500;2023-06-14T05:40:45;12.38;;;6.85;;
62362;SDS011;48396;48.426;1.500;2023-06-14T05:43:11;12.52;;;6.78;;
62362;SDS011;48396;48.426;1.500;2023-06-14T05:45:37;12.00;;;6.40;;
62362;SDS011;48396;48.426;1.500;2023-06-14T05:48:02;13.05;;;6.60;;
62362;SDS011;48396;48.426;1.500;2023-06-14T05:50:28;12.52;;;6.55;;
62362;SDS011;48396;48.426;1.500;2023-06-14T05:52:53;12.27;;;6.55;;
62362;SDS011;48396;48.426;1.500;2023-06-14T05:55:19;11.38;;;6.15;;
62362;SDS011;48396;48.426;1.500;2023-06-14T05:58:03;12.68;;;6.70;;
62362;SDS011;48396;48.426;1.500;2023-06-14T06:00:29;10.75;;;6.20;;
62362;SDS011;48396;48.426;1.500;2023-06-14T06:02:55;13.38;;;6.85;;
62362;SDS011;48396;48.426;1.500;2023-06-14T06:05:22;12.48;;;6.43;;
62362;SDS011;48396;48.426;1.500;2023-06-14T06:07:48;10.55;;;6.07;;
62362;SDS011;48396;48.426;1.500;2023-06-14T06:10:14;11.50;;;5.88;;
62362;SDS011;48396;48.426;1.500;2023-06-14T06:12:43;13.23;;;6.95;;
62362;SDS011;48396;48.426;1.500;2023-06-14T06:15:08;12.70;;;6.38;;
62362;SDS011;48396;48.426;1.500;2023-06-14T06:17:37;9.80;;;5.97;;
62362;SDS011;48396;48.426;1.500;2023-06-14T06:20:04;8.63;;;5.43;;
62362;SDS011;48396;48.426;1.500;2023-06-14T06:22:32;13.60;;;5.97;;
62362;SDS011;48396;48.426;1.500;2023-06-14T06:24:58;11.82;;;6.20;;
62362;SDS011;48396;48.426;1.500;2023-06-14T06:27:24;11.80;;;6.47;;
62362;SDS011;48396;48.426;1.500;2023-06-14T06:29:50;11.75;;;6.40;;
62362;SDS011;48396;48.426;1.500;2023-06-14T06:32:16;11.68;;;5.88;;
62362;SDS011;48396;48.426;1.500;2023-06-14T06:34:42;11.73;;;5.65;;
62362;SDS011;48396;48.426;1.500;2023-06-14T06:37:08;10.43;;;5.50;;
62362;SDS011;48396;48.426;1.500;2023-06-14T06:39:34;9.98;;;5.57;;
62362;SDS011;48396;48.426;1.500;2023-06-14T06:42:00;10.82;;;5.75;;
62362;SDS011;48396;48.426;1.500;2023-06-14T06:44:25;10.50;;;5.40;;
62362;SDS011;48396;48.426;1.500;2023-06-14T06:46:51;12.43;;;5.82;;
62362;SDS011;48396;48.426;1.500;2023-06-14T06:49:17;11.38;;;5.85;;
62362;SDS011;48396;48.426;1.500;2023-06-14T06:51:42;9.60;;;5.47;;
62362;SDS011;48396;48.426;1.500;2023-06-14T06:54:09;11.25;;;5.15;;
62362;SDS011;48396;48.426;1.500;2023-06-14T06:56:35;9.10;;;5.68;;
62362;SDS011;48396;48.426;1.500;2023-06-14T06:59:01;11.10;;;5.43;;
62362;SDS011;48396;48.426;1.500;2023-06-14T07:01:27;7.82;;;4.95;;
62362;SDS011;48396;48.426;1.500;2023-06-14T07:03:54;11.38;;;5.43;;
62362;SDS011;48396;48.426;1.500;2023-06-14T07:06:20;8.50;;;4.85;;
62362;SDS011;48396;48.426;1.500;2023-06-14T07:08:46;12.68;;;5.80;;
62362;SDS011;48396;48.426;1.500;2023-06-14T07:11:13;9.35;;;5.30;;
62362;SDS011;48396;48.426;1.500;2023-06-14T07:13:39;10.13;;;5.25;;
62362;SDS011;48396;48.426;1.500;2023-06-14T07:16:05;11.32;;;5.53;;
62362;SDS011;48396;48.426;1.500;2023-06-14T07:18:31;10.93;;;5.20;;
62362;SDS011;48396;48.426;1.500;2023-06-14T07:20:56;10.73;;;5.30;;
62362;SDS011;48396;48.426;1.500;2023-06-14T07:23:22;8.60;;;4.95;;
62362;SDS011;48396;48.426;1.500;2023-06-14T07:25:48;9.45;;;4.97;;
62362;SDS011;48396;48.426;1.500;2023-06-14T07:28:14;9.27;;;5.40;;
62362;SDS011;48396;48.426;1.500;2023-06-14T07:30:39;8.93;;;4.93;;
62362;SDS011;48396;48.426;1.500;2023-06-14T07:33:24;10.85;;;5.30;;
62362;SDS011;48396;48.426;1.500;2023-06-14T07:35:49;8.63;;;5.05;;
62362;SDS011;48396;48.426;1.500;2023-06-14T07:38:15;11.02;;;5.28;;
62362;SDS011;48396;48.426;1.500;2023-06-14T07:40:41;11.00;;;5.30;;
62362;SDS011;48396;48.426;1.500;2023-06-14T07:43:06;11.43;;;5.70;;
62362;SDS011;48396;48.426;1.500;2023-06-14T07:45:32;9.80;;;5.28;;
62362;SDS011;48396;48.426;1.500;2023-06-14T07:47:57;11.75;;;5.57;;
62362;SDS011;48396;48.426;1.500;2023-06-14T07:50:23;10.32;;;5.00;;
62362;SDS011;48396;48.426;1.500;2023-06-14T07:52:48;7.93;;;5.05;;
62362;SDS011;48396;48.426;1.500;2023-06-14T07:55:14;7.97;;;4.53;;
62362;SDS011;48396;48.426;1.500;2023-06-14T07:57:40;9.52;;;4.72;;
62362;SDS011;48396;48.426;1.500;2023-06-14T08:00:07;9.65;;;4.70;;
62362;SDS011;48396;48.426;1.500;2023-06-14T08:02:35;6.50;;;4.13;;
62362;SDS011;48396;48.426;1.500;2023-06-14T08:05:01;9.02;;;4.38;;
62362;SDS011;48396;48.426;1.500;2023-06-14T08:07:26;9.43;;;4.50;;
62362;SDS011;48396;48.426;1.500;2023-06-14T08:09:52;6.75;;;4.35;;
62362;SDS011;48396;48.426;1.500;2023-06-14T08:12:17;8.07;;;4.10;;
62362;SDS011;48396;48.426;1.500;2023-06-14T08:14:43;6.20;;;3.85;;
62362;SDS011;48396;48.426;1.500;2023-06-14T08:17:09;6.70;;;3.92;;
62362;SDS011;48396;48.426;1.500;2023-06-14T08:19:34;5.57;;;3.47;;
62362;SDS011;48396;48.426;1.500;2023-06-14T08:22:01;8.50;;;4.20;;
62362;SDS011;48396;48.426;1.500;2023-06-14T08:24:28;7.85;;;3.83;;
62362;SDS011;48396;48.426;1.500;2023-06-14T08:26:54;5.95;;;3.63;;
62362;SDS011;48396;48.426;1.500;2023-06-14T08:29:21;6.15;;;3.72;;
62362;SDS011;48396;48.426;1.500;2023-06-14T08:31:47;6.15;;;3.80;;
62362;SDS011;48396;48.426;1.500;2023-06-14T08:34:12;7.80;;;4.30;;
62362;SDS011;48396;48.426;1.500;2023-06-14T08:36:38;6.38;;;4.15;;
62362;SDS011;48396;48.426;1.500;2023-06-14T08:39:04;7.65;;;4.50;;
62362;SDS011;48396;48.426;1.500;2023-06-14T08:41:29;8.50;;;4.47;;
62362;SDS011;48396;48.426;1.500;2023-06-14T08:43:55;7.32;;;4.55;;
62362;SDS011;48396;48.426;1.500;2023-06-14T08:46:21;7.15;;;4.32;;
62362;SDS011;48396;48.426;1.500;2023-06-14T08:48:52;7.38;;;4.28;;
62362;SDS011;48396;48.426;1.500;2023-06-14T08:51:20;7.85;;;4.45;;
62362;SDS011;48396;48.426;1.500;2023-06-14T08:53:49;7.70;;;4.25;;
62362;SDS011;48396;48.426;1.500;2023-06-14T08:56:27;9.95;;;4.88;;
62362;SDS011;48396;48.426;1.500;2023-06-14T08:58:54;8.10;;;4.53;;
62362;SDS011;48396;48.426;1.500;2023-06-14T09:01:20;8.27;;;4.50;;
62362;SDS011;48396;48.426;1.500;2023-06-14T09:06:31;7.18;;;4.30;;
62362;SDS011;48396;48.426;1.500;2023-06-14T09:08:58;7.18;;;4.18;;
62362;SDS011;48396;48.426;1.500;2023-06-14T09:11:23;6.85;;;4.13;;
62362;SDS011;48396;48.426;1.500;2023-06-14T09:13:51;6.57;;;4.22;;
62362;SDS011;48396;48.426;1.500;2023-06-14T09:16:16;6.45;;;4.03;;
62362;SDS011;48396;48.426;1.500;2023-06-14T09:18:43;6.35;;;3.83;;
62362;SDS011;48396;48.426;1.500;2023-06-14T09:21:12;8.77;;;4.10;;
62362;SDS011;48396;48.426;1.500;2023-06-14T09:23:42;6.72;;;3.90;;
62362;SDS011;48396;48.426;1.500;2023-06-14T09:26:16;7.07;;;4.10;;
62362;SDS011;48396;48.426;1.500;2023-06-14T09:28:46;7.82;;;4.43;;
62362;SDS011;48396;48.426;1.500;2023-06-14T09:31:15;6.07;;;4.20;;
62362;SDS011;48396;48.426;1.500;2023-06-14T09:33:45;6.28;;;3.90;;
62362;SDS011;48396;48.426;1.500;2023-06-14T09:36:22;8.20;;;4.22;;
62362;SDS011;48396;48.426;1.500;2023-06-14T09:38:53;8.48;;;4.47;;
62362;SDS011;48396;48.426;1.500;2023-06-14T09:41:19;7.00;;;4.13;;
62362;SDS011;48396;48.426;1.500;2023-06-14T09:43:45;7.25;;;4.28;;
62362;SDS011;48396;48.426;1.500;2023-06-14T09:46:12;7.90;;;4.30;;
62362;SDS011;48396;48.426;1.500;2023-06-14T09:48:38;6.63;;;4.03;;
62362;SDS011;48396;48.426;1.500;2023-06-14T09:51:07;8.20;;;4.20;;
62362;SDS011;48396;48.426;1.500;2023-06-14T09:53:37;7.07;;;4.00;;
62362;SDS011;48396;48.426;1.500;2023-06-14T09:56:22;6.53;;;4.13;;
62362;SDS011;48396;48.426;1.500;2023-06-14T09:58:49;6.25;;;4.30;;
62362;SDS011;48396;48.426;1.500;2023-06-14T10:01:24;8.57;;;4.30;;
62362;SDS011;48396;48.426;1.500;2023-06-14T10:03:52;8.52;;;4.93;;
62362;SDS011;48396;48.426;1.500;2023-06-14T10:06:24;9.07;;;4.40;;
62362;SDS011;48396;48.426;1.500;2023-06-14T10:08:52;6.90;;;4.07;;
62362;SDS011;48396;48.426;1.500;2023-06-14T10:11:21;6.25;;;3.97;;
62362;SDS011;48396;48.426;1.500;2023-06-14T10:13:46;7.82;;;4.43;;
62362;SDS011;48396;48.426;1.500;2023-06-14T10:16:17;6.95;;;3.92;;
62362;SDS011;48396;48.426;1.500;2023-06-14T10:21:51;6.20;;;4.28;;
62362;SDS011;48396;48.426;1.500;2023-06-14T10:24:42;8.35;;;4.50;;
62362;SDS011;48396;48.426;1.500;2023-06-14T10:27:08;9.15;;;4.47;;
62362;SDS011;48396;48.426;1.500;2023-06-14T10:29:35;7.63;;;4.47;;
62362;SDS011;48396;48.426;1.500;2023-06-14T10:32:27;6.90;;;4.40;;
62362;SDS011;48396;48.426;1.500;2023-06-14T10:34:54;6.95;;;4.00;;
62362;SDS011;48396;48.426;1.500;2023-06-14T10:37:21;5.72;;;3.80;;
62362;SDS011;48396;48.426;1.500;2023-06-14T10:39:46;5.63;;;3.70;;
62362;SDS011;48396;48.426;1.500;2023-06-14T10:42:12;7.80;;;4.43;;
62362;SDS011;48396;48.426;1.500;2023-06-14T10:47:38;7.63;;;4.45;;
62362;SDS011;48396;48.426;1.500;2023-06-14T10:52:42;7.43;;;4.38;;
62362;SDS011;48396;48.426;1.500;2023-06-14T10:55:12;7.68;;;4.50;;
62362;SDS011;48396;48.426;1.500;2023-06-14T10:57:48;7.30;;;4.20;;
62362;SDS011;48396;48.426;1.500;2023-06-14T11:00:24;6.28;;;4.18;;
62362;SDS011;48396;48.426;1.500;2023-06-14T11:03:26;6.28;;;3.92;;
62362;SDS011;48396;48.426;1.500;2023-06-14T11:06:14;8.15;;;4.20;;
62362;SDS011;48396;48.426;1.500;2023-06-14T11:09:00;7.88;;;4.45;;
62362;SDS011;48396;48.426;1.500;2023-06-14T11:11:51;7.50;;;4.18;;
62362;SDS011;48396;48.426;1.500;2023-06-14T11:14:18;6.05;;;4.32;;
62362;SDS011;48396;48.426;1.500;2023-06-14T11:16:48;7.55;;;4.45;;
62362;SDS011;48396;48.426;1.500;2023-06-14T11:19:14;7.70;;;4.18;;
62362;SDS011;48396;48.426;1.500;2023-06-14T11:21:42;9.13;;;4.35;;
62362;SDS011;48396;48.426;1.500;2023-06-14T11:24:26;8.95;;;4.50;;
62362;SDS011;48396;48.426;1.500;2023-06-14T11:26:52;6.30;;;3.85;;
62362;SDS011;48396;48.426;1.500;2023-06-14T11:29:19;6.40;;;4.07;;
62362;SDS011;48396;48.426;1.500;2023-06-14T11:31:45;9.15;;;4.45;;
62362;SDS011;48396;48.426;1.500;2023-06-14T11:34:11;9.05;;;4.47;;
62362;SDS011;48396;48.426;1.500;2023-06-14T11:36:38;6.55;;;4.25;;
62362;SDS011;48396;48.426;1.500;2023-06-14T11:39:04;6.90;;;4.05;;
62362;SDS011;48396;48.426;1.500;2023-06-14T11:41:35;7.70;;;3.92;;
62362;SDS011;48396;48.426;1.500;2023-06-14T11:44:02;6.10;;;4.05;;
62362;SDS011;48396;48.426;1.500;2023-06-14T11:46:28;6.20;;;4.18;;
62362;SDS011;48396;48.426;1.500;2023-06-14T11:48:54;7.25;;;4.18;;
62362;SDS011;48396;48.426;1.500;2023-06-14T11:51:20;7.57;;;4.22;;
62362;SDS011;48396;48.426;1.500;2023-06-14T11:53:46;7.10;;;4.20;;
62362;SDS011;48396;48.426;1.500;2023-06-14T11:56:12;7.15;;;3.90;;
62362;SDS011;48396;48.426;1.500;2023-06-14T11:58:38;8.20;;;4.60;;
62362;SDS011;48396;48.426;1.500;2023-06-14T12:01:03;7.57;;;4.10;;
62362;SDS011;48396;48.426;1.500;2023-06-14T12:03:29;8.02;;;4.20;;
62362;SDS011;48396;48.426;1.500;2023-06-14T12:06:16;7.60;;;4.38;;
62362;SDS011;48396;48.426;1.500;2023-06-14T12:08:42;7.05;;;3.90;;
62362;SDS011;48396;48.426;1.500;2023-06-14T12:11:10;6.28;;;4.13;;
62362;SDS011;48396;48.426;1.500;2023-06-14T12:13:38;6.90;;;4.55;;
62362;SDS011;48396;48.426;1.500;2023-06-14T12:16:07;7.28;;;4.32;;
62362;SDS011;48396;48.426;1.500;2023-06-14T12:18:34;9.10;;;4.68;;
62362;SDS011;48396;48.426;1.500;2023-06-14T12:21:02;7.85;;;4.57;;
62362;SDS011;48396;48.426;1.500;2023-06-14T12:23:47;7.22;;;4.43;;
62362;SDS011;48396;48.426;1.500;2023-06-14T12:26:17;8.02;;;4.07;;
62362;SDS011;48396;48.426;1.500;2023-06-14T12:28:44;8.88;;;4.43;;
62362;SDS011;48396;48.426;1.500;2023-06-14T12:31:11;6.85;;;4.30;;
62362;SDS011;48396;48.426;1.500;2023-06-14T12:33:38;7.10;;;4.40;;
62362;SDS011;48396;48.426;1.500;2023-06-14T12:36:06;7.20;;;4.10;;
62362;SDS011;48396;48.426;1.500;2023-06-14T12:38:32;7.65;;;4.38;;
62362;SDS011;48396;48.426;1.500;2023-06-14T12:40:58;7.05;;;4.20;;
62362;SDS011;48396;48.426;1.500;2023-06-14T12:43:25;5.32;;;3.75;;
62362;SDS011;48396;48.426;1.500;2023-06-14T12:45:51;7.07;;;3.80;;
62362;SDS011;48396;48.426;1.500;2023-06-14T12:48:17;8.60;;;4.47;;
62362;SDS011;48396;48.426;1.500;2023-06-14T12:50:42;8.05;;;4.35;;
62362;SDS011;48396;48.426;1.500;2023-06-14T12:53:08;6.75;;;4.10;;
62362;SDS011;48396;48.426;1.500;2023-06-14T12:55:34;6.55;;;4.28;;
62362;SDS011;48396;48.426;1.500;2023-06-14T12:57:59;7.50;;;3.97;;
62362;SDS011;48396;48.426;1.500;2023-06-14T13:00:25;7.47;;;4.20;;
62362;SDS011;48396;48.426;1.500;2023-06-14T13:02:51;5.35;;;3.55;;
62362;SDS011;48396;48.426;1.500;2023-06-14T13:05:17;7.15;;;4.05;;
62362;SDS011;48396;48.426;1.500;2023-06-14T13:07:43;7.80;;;4.22;;
62362;SDS011;48396;48.426;1.500;2023-06-14T13:10:09;8.07;;;4.35;;
62362;SDS011;48396;48.426;1.500;2023-06-14T13:12:35;7.10;;;4.35;;
62362;SDS011;48396;48.426;1.500;2023-06-14T13:15:01;7.60;;;3.92;;
62362;SDS011;48396;48.426;1.500;2023-06-14T13:17:27;6.57;;;4.10;;
62362;SDS011;48396;48.426;1.500;2023-06-14T13:19:52;6.35;;;4.13;;
62362;SDS011;48396;48.426;1.500;2023-06-14T13:22:18;7.47;;;4.38;;
62362;SDS011;48396;48.426;1.500;2023-06-14T13:24:44;6.82;;;4.15;;
62362;SDS011;48396;48.426;1.500;2023-06-14T13:27:09;6.10;;;4.13;;
62362;SDS011;48396;48.426;1.500;2023-06-14T13:29:35;7.07;;;4.22;;
62362;SDS011;48396;48.426;1.500;2023-06-14T13:32:02;6.90;;;3.58;;
62362;SDS011;48396;48.426;1.500;2023-06-14T13:34:28;6.50;;;3.90;;
62362;SDS011;48396;48.426;1.500;2023-06-14T13:36:53;6.18;;;4.00;;
62362;SDS011;48396;48.426;1.500;2023-06-14T13:39:19;9.30;;;4.38;;
62362;SDS011;48396;48.426;1.500;2023-06-14T13:41:45;8.50;;;4.18;;
62362;SDS011;48396;48.426;1.500;2023-06-14T13:44:10;6.47;;;4.05;;
62362;SDS011;48396;48.426;1.500;2023-06-14T13:46:41;6.93;;;4.05;;
62362;SDS011;48396;48.426;1.500;2023-06-14T13:49:07;7.03;;;4.15;;
62362;SDS011;48396;48.426;1.500;2023-06-14T13:51:52;7.03;;;4.03;;
62362;SDS011;48396;48.426;1.500;2023-06-14T13:54:19;6.93;;;4.03;;
62362;SDS011;48396;48.426;1.500;2023-06-14T13:56:46;7.05;;;3.88;;
62362;SDS011;48396;48.426;1.500;2023-06-14T13:59:11;6.05;;;4.10;;
62362;SDS011;48396;48.426;1.500;2023-06-14T14:01:37;7.05;;;4.53;;
62362;SDS011;48396;48.426;1.500;2023-06-14T14:04:03;7.70;;;4.53;;
62362;SDS011;48396;48.426;1.500;2023-06-14T14:06:29;5.57;;;4.10;;
62362;SDS011;48396;48.426;1.500;2023-06-14T14:08:55;6.90;;;4.22;;
62362;SDS011;48396;48.426;1.500;2023-06-14T14:11:21;11.88;;;4.97;;
62362;SDS011;48396;48.426;1.500;2023-06-14T14:13:47;9.00;;;4.85;;
62362;SDS011;48396;48.426;1.500;2023-06-14T14:16:13;6.88;;;4.25;;
62362;SDS011;48396;48.426;1.500;2023-06-14T14:18:38;6.30;;;4.30;;
62362;SDS011;48396;48.426;1.500;2023-06-14T14:21:04;8.13;;;4.53;;
62362;SDS011;48396;48.426;1.500;2023-06-14T14:23:30;6.15;;;4.10;;
62362;SDS011;48396;48.426;1.500;2023-06-14T14:25:55;7.40;;;4.60;;
62362;SDS011;48396;48.426;1.500;2023-06-14T14:28:21;7.95;;;4.38;;
62362;SDS011;48396;48.426;1.500;2023-06-14T14:30:47;8.82;;;4.65;;
62362;SDS011;48396;48.426;1.500;2023-06-14T14:33:13;6.70;;;4.18;;
62362;SDS011;48396;48.426;1.500;2023-06-14T14:35:42;7.50;;;4.13;;
62362;SDS011;48396;48.426;1.500;2023-06-14T14:38:11;7.25;;;3.83;;
62362;SDS011;48396;48.426;1.500;2023-06-14T14:40:38;6.18;;;3.90;;
62362;SDS011;48396;48.426;1.500;2023-06-14T14:43:04;7.40;;;4.15;;
62362;SDS011;48396;48.426;1.500;2023-06-14T14:45:30;7.22;;;4.00;;
62362;SDS011;48396;48.426;1.500;2023-06-14T14:47:55;9.10;;;4.65;;
62362;SDS011;48396;48.426;1.500;2023-06-14T14:50:21;7.75;;;4.70;;
62362;SDS011;48396;48.426;1.500;2023-06-14T14:52:46;6.95;;;4.00;;
62362;SDS011;48396;48.426;1.500;2023-06-14T14:55:12;7.18;;;4.28;;